createdAt,value
2019-01-20T00:00:42.297Z,0.00
2019-01-20T00:01:42.273Z,0.00
2019-01-20T00:02:42.267Z,0.00
2019-01-20T00:03:42.254Z,0.00
2019-01-20T00:04:42.241Z,0.00
2019-01-20T00:05:42.243Z,0.00
2019-01-20T00:06:42.221Z,0.00
2019-01-20T00:07:42.210Z,0.00
2019-01-20T00:08:42.197Z,0.00
2019-01-20T00:09:42.186Z,0.00
2019-01-20T00:10:42.190Z,0.00
2019-01-20T00:11:42.167Z,0.00
2019-01-20T00:12:42.158Z,0.00
2019-01-20T00:13:42.144Z,0.00
2019-01-20T00:14:42.135Z,0.00
2019-01-20T00:15:42.141Z,0.00
2019-01-20T00:16:42.114Z,0.00
2019-01-20T00:17:42.101Z,0.00
2019-01-20T00:18:42.092Z,0.00
2019-01-20T00:19:42.081Z,0.00
2019-01-20T00:20:42.081Z,0.00
2019-01-20T00:21:42.060Z,0.00
2019-01-20T00:22:42.050Z,0.00
2019-01-20T00:23:42.040Z,0.00
2019-01-20T00:24:42.025Z,0.00
2019-01-20T00:25:42.029Z,0.00
2019-01-20T00:26:42.005Z,0.00
2019-01-20T00:27:41.992Z,0.00
2019-01-20T00:28:41.987Z,0.00
2019-01-20T00:29:41.971Z,0.00
2019-01-20T00:30:41.976Z,0.00
2019-01-20T00:31:41.949Z,0.00
2019-01-20T00:32:41.941Z,0.00
2019-01-20T00:33:41.930Z,0.00
2019-01-20T00:34:41.917Z,0.00
2019-01-20T00:35:41.952Z,0.00
2019-01-20T00:36:41.896Z,0.00
2019-01-20T00:37:41.888Z,0.00
2019-01-20T00:38:41.874Z,0.00
2019-01-20T00:39:41.867Z,0.00
2019-01-20T00:40:41.852Z,0.00
2019-01-20T00:41:42.689Z,0.00
2019-01-20T00:42:41.833Z,0.00
2019-01-20T00:43:41.823Z,0.00
2019-01-20T00:44:41.833Z,0.00
2019-01-20T00:45:41.801Z,0.00
2019-01-20T00:46:41.803Z,0.00
2019-01-20T00:47:41.779Z,0.00
2019-01-20T00:48:41.768Z,0.00
2019-01-20T00:49:41.756Z,0.00
2019-01-20T00:50:41.749Z,0.00
2019-01-20T00:51:41.752Z,0.00
2019-01-20T00:52:41.723Z,0.00
2019-01-20T00:53:41.713Z,0.00
2019-01-20T00:54:41.705Z,0.00
2019-01-20T00:55:41.693Z,0.00
2019-01-20T00:56:41.691Z,0.00
2019-01-20T00:57:41.670Z,0.00
2019-01-20T00:58:41.660Z,0.00
2019-01-20T00:59:41.648Z,0.00
2019-01-20T01:00:41.639Z,0.00
2019-01-20T01:01:41.641Z,0.00
2019-01-20T01:02:41.617Z,0.00
2019-01-20T01:03:41.605Z,0.00
2019-01-20T01:04:41.594Z,0.00
2019-01-20T01:05:41.585Z,0.00
2019-01-20T01:06:41.583Z,0.00
2019-01-20T01:07:41.582Z,0.00
2019-01-20T01:08:41.552Z,0.00
2019-01-20T01:09:41.542Z,0.00
2019-01-20T01:10:41.530Z,0.00
2019-01-20T01:11:41.531Z,0.00
2019-01-20T01:12:41.510Z,0.00
2019-01-20T01:13:41.500Z,0.00
2019-01-20T01:14:41.487Z,0.00
2019-01-20T01:15:41.476Z,0.00
2019-01-20T01:16:41.498Z,0.00
2019-01-20T01:17:41.458Z,0.00
2019-01-20T01:18:41.444Z,0.00
2019-01-20T01:19:41.441Z,0.00
2019-01-20T01:20:41.424Z,0.00
2019-01-20T01:21:41.412Z,0.00
2019-01-20T01:22:41.412Z,0.00
2019-01-20T01:23:41.391Z,0.00
2019-01-20T01:24:41.380Z,0.00
2019-01-20T01:25:41.373Z,0.00
2019-01-20T01:26:41.363Z,0.00
2019-01-20T01:27:41.362Z,0.00
2019-01-20T01:28:41.340Z,0.00
2019-01-20T01:29:41.329Z,0.00
2019-01-20T01:30:41.319Z,0.00
2019-01-20T01:31:41.310Z,0.00
2019-01-20T01:32:41.311Z,0.00
2019-01-20T01:33:41.290Z,0.00
2019-01-20T01:34:41.281Z,0.00
2019-01-20T01:35:41.266Z,0.00
2019-01-20T01:36:41.257Z,0.00
2019-01-20T01:37:41.255Z,0.00
2019-01-20T01:38:41.235Z,0.00
2019-01-20T01:39:41.224Z,0.00
2019-01-20T01:40:41.214Z,0.00
2019-01-20T01:41:41.205Z,0.00
2019-01-20T01:42:41.203Z,0.00
2019-01-20T01:43:41.182Z,0.00
2019-01-20T01:44:41.170Z,0.00
2019-01-20T01:45:41.167Z,0.00
2019-01-20T01:46:41.149Z,0.00
2019-01-20T01:47:41.153Z,0.00
2019-01-20T01:48:41.131Z,0.00
2019-01-20T01:49:41.119Z,0.00
2019-01-20T01:50:41.108Z,0.00
2019-01-20T01:51:41.097Z,0.00
2019-01-20T01:52:41.097Z,0.00
2019-01-20T01:53:41.076Z,0.00
2019-01-20T01:54:41.065Z,0.00
2019-01-20T01:55:41.055Z,0.00
2019-01-20T01:56:41.042Z,0.00
2019-01-20T01:57:41.062Z,0.00
2019-01-20T01:58:41.023Z,0.00
2019-01-20T01:59:41.011Z,0.00
2019-01-20T02:00:41.001Z,0.00
2019-01-20T02:01:40.990Z,0.00
2019-01-20T02:02:40.977Z,0.00
2019-01-20T02:03:40.980Z,0.00
2019-01-20T02:04:40.958Z,0.00
2019-01-20T02:05:40.946Z,0.00
2019-01-20T02:06:40.939Z,0.00
2019-01-20T02:07:40.927Z,0.00
2019-01-20T02:08:40.932Z,0.00
2019-01-20T02:09:40.904Z,0.00
2019-01-20T02:10:40.894Z,0.00
2019-01-20T02:11:46.749Z,0.00
2019-01-20T02:12:41.872Z,0.00
2019-01-20T02:13:40.875Z,0.00
2019-01-20T02:14:40.853Z,0.00
2019-01-20T02:15:40.843Z,0.00
2019-01-20T02:16:40.838Z,0.00
2019-01-20T02:17:40.821Z,0.00
2019-01-20T02:18:40.821Z,0.00
2019-01-20T02:19:40.800Z,0.00
2019-01-20T02:20:40.789Z,0.00
2019-01-20T02:21:40.779Z,0.00
2019-01-20T02:22:40.770Z,0.00
2019-01-20T02:23:40.774Z,0.00
2019-01-20T02:24:40.749Z,0.00
2019-01-20T02:25:40.737Z,0.00
2019-01-20T02:26:40.727Z,0.00
2019-01-20T02:27:40.719Z,0.00
2019-01-20T02:28:45.854Z,0.00
2019-01-20T02:29:40.697Z,0.00
2019-01-20T02:30:40.688Z,0.00
2019-01-20T02:31:40.676Z,0.00
2019-01-20T02:32:40.665Z,0.00
2019-01-20T02:33:40.668Z,0.00
2019-01-20T02:34:40.644Z,0.00
2019-01-20T02:35:40.640Z,0.00
2019-01-20T02:36:40.624Z,0.00
2019-01-20T02:37:40.615Z,0.00
2019-01-20T02:38:40.630Z,0.00
2019-01-20T02:39:40.621Z,0.00
2019-01-20T02:40:40.582Z,0.00
2019-01-20T02:41:40.578Z,0.00
2019-01-20T02:42:40.560Z,0.00
2019-01-20T02:43:40.550Z,0.00
2019-01-20T02:44:40.553Z,0.00
2019-01-20T02:45:40.605Z,0.00
2019-01-20T02:46:40.519Z,0.00
2019-01-20T02:47:40.510Z,0.00
2019-01-20T02:48:40.505Z,0.00
2019-01-20T02:49:40.501Z,0.00
2019-01-20T02:50:40.480Z,0.00
2019-01-20T02:51:40.467Z,0.00
2019-01-20T02:52:40.459Z,0.00
2019-01-20T02:53:40.447Z,0.00
2019-01-20T02:54:40.451Z,0.00
2019-01-20T02:55:40.426Z,0.00
2019-01-20T02:56:40.416Z,0.00
2019-01-20T02:57:40.412Z,0.00
2019-01-20T02:58:40.396Z,0.00
2019-01-20T02:59:40.394Z,0.00
2019-01-20T03:00:40.372Z,0.00
2019-01-20T03:01:40.363Z,0.00
2019-01-20T03:02:40.351Z,0.00
2019-01-20T03:03:40.345Z,0.00
2019-01-20T03:04:40.343Z,0.00
2019-01-20T03:05:40.319Z,0.00
2019-01-20T03:06:40.317Z,0.00
2019-01-20T03:07:40.299Z,0.00
2019-01-20T03:08:40.289Z,0.00
2019-01-20T03:09:40.288Z,0.00
2019-01-20T03:10:40.267Z,0.00
2019-01-20T03:11:40.257Z,0.00
2019-01-20T03:12:40.256Z,0.00
2019-01-20T03:13:40.236Z,0.00
2019-01-20T03:14:40.238Z,0.00
2019-01-20T03:15:40.215Z,0.00
2019-01-20T03:16:40.203Z,0.00
2019-01-20T03:17:40.193Z,0.00
2019-01-20T03:18:40.186Z,0.00
2019-01-20T03:19:40.186Z,0.00
2019-01-20T03:20:40.168Z,0.00
2019-01-20T03:21:40.153Z,0.00
2019-01-20T03:22:40.140Z,0.00
2019-01-20T03:23:40.135Z,0.00
2019-01-20T03:24:40.133Z,0.00
2019-01-20T03:25:40.110Z,0.00
2019-01-20T03:26:40.100Z,0.00
2019-01-20T03:27:40.090Z,0.00
2019-01-20T03:28:40.077Z,0.00
2019-01-20T03:29:40.080Z,0.00
2019-01-20T03:30:40.063Z,0.00
2019-01-20T03:31:40.049Z,0.00
2019-01-20T03:32:40.038Z,0.00
2019-01-20T03:33:40.026Z,0.00
2019-01-20T03:34:40.025Z,0.00
2019-01-20T03:35:40.004Z,0.00
2019-01-20T03:36:39.994Z,0.00
2019-01-20T03:37:39.983Z,0.00
2019-01-20T03:38:39.972Z,0.00
2019-01-20T03:39:39.971Z,0.00
2019-01-20T03:40:39.953Z,0.00
2019-01-20T03:41:39.941Z,0.00
2019-01-20T03:42:39.932Z,0.00
2019-01-20T03:43:39.927Z,0.00
2019-01-20T03:44:39.920Z,0.00
2019-01-20T03:45:39.900Z,0.00
2019-01-20T03:46:39.889Z,0.00
2019-01-20T03:47:39.878Z,0.00
2019-01-20T03:48:39.868Z,0.00
2019-01-20T03:49:39.870Z,0.00
2019-01-20T03:50:39.846Z,0.00
2019-01-20T03:51:39.837Z,0.00
2019-01-20T03:52:39.825Z,0.00
2019-01-20T03:53:39.827Z,0.00
2019-01-20T03:54:39.817Z,0.00
2019-01-20T03:55:39.796Z,0.00
2019-01-20T03:56:39.786Z,0.00
2019-01-20T03:57:39.776Z,0.00
2019-01-20T03:58:39.764Z,0.00
2019-01-20T03:59:39.770Z,0.00
2019-01-20T04:00:39.743Z,0.00
2019-01-20T04:01:39.731Z,0.00
2019-01-20T04:02:39.728Z,0.00
2019-01-20T04:03:39.711Z,0.00
2019-01-20T04:04:39.713Z,0.00
2019-01-20T04:05:39.691Z,0.00
2019-01-20T04:06:39.687Z,0.00
2019-01-20T04:07:39.675Z,0.00
2019-01-20T04:08:39.661Z,0.00
2019-01-20T04:09:39.659Z,0.00
2019-01-20T04:10:39.639Z,0.00
2019-01-20T04:11:39.628Z,0.00
2019-01-20T04:12:39.621Z,0.00
2019-01-20T04:13:39.617Z,0.00
2019-01-20T04:14:39.609Z,0.00
2019-01-20T04:15:39.593Z,0.00
2019-01-20T04:16:39.596Z,0.00
2019-01-20T04:17:39.585Z,0.00
2019-01-20T04:18:39.556Z,0.00
2019-01-20T04:19:39.556Z,0.00
2019-01-20T04:20:39.536Z,0.00
2019-01-20T04:21:39.524Z,0.00
2019-01-20T04:22:39.512Z,0.00
2019-01-20T04:23:39.503Z,0.00
2019-01-20T04:24:39.505Z,0.00
2019-01-20T04:25:39.481Z,0.00
2019-01-20T04:26:39.481Z,0.00
2019-01-20T04:27:39.459Z,0.00
2019-01-20T04:28:39.467Z,0.00
2019-01-20T04:29:39.451Z,0.00
2019-01-20T04:30:39.441Z,0.00
2019-01-20T04:31:39.428Z,0.00
2019-01-20T04:32:39.409Z,0.00
2019-01-20T04:33:39.397Z,0.00
2019-01-20T04:34:39.397Z,0.00
2019-01-20T04:35:39.378Z,0.00
2019-01-20T04:36:39.367Z,0.00
2019-01-20T04:37:39.355Z,0.00
2019-01-20T04:38:39.344Z,0.00
2019-01-20T04:39:39.346Z,0.00
2019-01-20T04:40:39.324Z,0.00
2019-01-20T04:41:39.313Z,0.00
2019-01-20T04:42:39.301Z,0.00
2019-01-20T04:43:39.293Z,0.00
2019-01-20T04:44:39.293Z,0.00
2019-01-20T04:45:39.270Z,0.00
2019-01-20T04:46:39.261Z,0.00
2019-01-20T04:47:39.252Z,0.00
2019-01-20T04:48:39.238Z,0.00
2019-01-20T04:49:39.268Z,0.00
2019-01-20T04:50:39.219Z,0.00
2019-01-20T04:51:39.208Z,0.00
2019-01-20T04:52:39.200Z,0.00
2019-01-20T04:53:39.189Z,0.00
2019-01-20T04:54:39.265Z,0.00
2019-01-20T04:55:39.177Z,0.00
2019-01-20T04:56:39.157Z,0.00
2019-01-20T04:57:39.145Z,0.00
2019-01-20T04:58:39.134Z,0.00
2019-01-20T04:59:39.125Z,0.00
2019-01-20T05:00:39.128Z,0.00
2019-01-20T05:01:39.104Z,0.00
2019-01-20T05:02:39.094Z,0.00
2019-01-20T05:03:39.084Z,0.00
2019-01-20T05:04:39.071Z,0.00
2019-01-20T05:05:39.075Z,0.00
2019-01-20T05:06:39.051Z,0.00
2019-01-20T05:07:39.041Z,0.00
2019-01-20T05:08:39.031Z,0.00
2019-01-20T05:09:39.021Z,0.00
2019-01-20T05:10:39.021Z,0.00
2019-01-20T05:11:38.998Z,0.00
2019-01-20T05:12:38.989Z,0.00
2019-01-20T05:13:38.983Z,0.00
2019-01-20T05:14:38.973Z,0.00
2019-01-20T05:15:38.968Z,0.00
2019-01-20T05:16:38.946Z,0.00
2019-01-20T05:17:38.984Z,0.00
2019-01-20T05:18:38.925Z,0.00
2019-01-20T05:19:38.916Z,0.00
2019-01-20T05:20:38.921Z,0.00
2019-01-20T05:21:38.894Z,0.00
2019-01-20T05:22:38.890Z,0.00
2019-01-20T05:23:38.876Z,0.00
2019-01-20T05:24:38.865Z,0.00
2019-01-20T05:25:38.864Z,0.00
2019-01-20T05:26:38.844Z,0.00
2019-01-20T05:27:38.831Z,0.00
2019-01-20T05:28:38.822Z,0.00
2019-01-20T05:29:38.811Z,0.00
2019-01-20T05:30:38.812Z,0.00
2019-01-20T05:31:38.791Z,0.00
2019-01-20T05:32:38.781Z,0.00
2019-01-20T05:33:38.768Z,0.00
2019-01-20T05:34:38.766Z,0.00
2019-01-20T05:35:38.787Z,0.00
2019-01-20T05:36:38.739Z,0.00
2019-01-20T05:37:38.728Z,0.00
2019-01-20T05:38:38.718Z,0.00
2019-01-20T05:39:38.706Z,0.00
2019-01-20T05:40:38.694Z,0.00
2019-01-20T05:41:38.697Z,0.00
2019-01-20T05:42:46.119Z,0.00
2019-01-20T05:43:39.663Z,0.00
2019-01-20T05:44:38.657Z,0.00
2019-01-20T05:45:38.642Z,0.00
2019-01-20T05:46:38.644Z,0.00
2019-01-20T05:47:38.625Z,0.00
2019-01-20T05:48:38.618Z,0.00
2019-01-20T05:49:38.602Z,0.00
2019-01-20T05:50:38.591Z,0.00
2019-01-20T05:51:38.636Z,0.00
2019-01-20T05:52:38.572Z,0.00
2019-01-20T05:53:38.559Z,0.00
2019-01-20T05:54:38.549Z,0.00
2019-01-20T05:55:38.543Z,0.00
2019-01-20T05:56:38.528Z,0.00
2019-01-20T05:57:38.528Z,0.00
2019-01-20T05:58:38.507Z,0.00
2019-01-20T05:59:38.499Z,0.00
2019-01-20T06:00:38.488Z,0.00
2019-01-20T06:01:38.477Z,0.00
2019-01-20T06:02:38.498Z,0.00
2019-01-20T06:03:38.456Z,0.00
2019-01-20T06:04:38.445Z,0.00
2019-01-20T06:05:38.437Z,0.00
2019-01-20T06:06:38.426Z,0.00
2019-01-20T06:07:38.424Z,0.00
2019-01-20T06:08:38.403Z,0.00
2019-01-20T06:09:38.394Z,0.00
2019-01-20T06:10:38.383Z,0.00
2019-01-20T06:11:38.372Z,0.00
2019-01-20T06:12:38.374Z,0.00
2019-01-20T06:13:38.353Z,0.00
2019-01-20T06:14:38.344Z,0.00
2019-01-20T06:15:38.330Z,0.00
2019-01-20T06:16:38.320Z,0.00
2019-01-20T06:17:38.320Z,0.00
2019-01-20T06:18:38.298Z,0.00
2019-01-20T06:19:38.289Z,0.00
2019-01-20T06:20:38.330Z,0.00
2019-01-20T06:21:38.268Z,0.00
2019-01-20T06:22:38.268Z,0.00
2019-01-20T06:23:38.247Z,0.00
2019-01-20T06:24:38.237Z,0.00
2019-01-20T06:25:38.239Z,0.00
2019-01-20T06:26:38.216Z,0.00
2019-01-20T06:27:38.217Z,0.00
2019-01-20T06:28:39.542Z,0.00
2019-01-20T06:29:38.184Z,0.00
2019-01-20T06:30:38.174Z,0.00
2019-01-20T06:31:38.163Z,0.00
2019-01-20T06:32:38.166Z,0.00
2019-01-20T06:33:38.143Z,0.00
2019-01-20T06:34:38.133Z,0.00
2019-01-20T06:35:38.121Z,0.00
2019-01-20T06:36:38.113Z,0.00
2019-01-20T06:37:38.118Z,0.00
2019-01-20T06:38:38.089Z,0.00
2019-01-20T06:39:38.080Z,0.00
2019-01-20T06:40:38.072Z,0.00
2019-01-20T06:41:38.059Z,0.00
2019-01-20T06:42:38.059Z,0.00
2019-01-20T06:43:38.038Z,0.00
2019-01-20T06:44:38.028Z,0.00
2019-01-20T06:45:38.019Z,0.00
2019-01-20T06:46:38.007Z,0.00
2019-01-20T06:47:38.009Z,0.00
2019-01-20T06:48:37.991Z,0.00
2019-01-20T06:49:37.976Z,0.00
2019-01-20T06:50:37.968Z,0.00
2019-01-20T06:51:37.956Z,0.00
2019-01-20T06:52:37.956Z,0.00
2019-01-20T06:53:37.935Z,0.00
2019-01-20T06:54:37.923Z,0.00
2019-01-20T06:55:37.913Z,0.00
2019-01-20T06:56:37.903Z,0.00
2019-01-20T06:57:37.904Z,0.00
2019-01-20T06:58:37.882Z,0.00
2019-01-20T06:59:37.871Z,0.00
2019-01-20T07:00:37.861Z,0.00
2019-01-20T07:01:37.852Z,0.00
2019-01-20T07:02:37.851Z,0.00
2019-01-20T07:03:37.832Z,5.62
2019-01-20T07:04:37.821Z,5.62
2019-01-20T07:05:37.809Z,5.62
2019-01-20T07:06:37.801Z,5.62
2019-01-20T07:07:37.819Z,5.62
2019-01-20T07:08:37.780Z,5.62
2019-01-20T07:09:37.765Z,5.62
2019-01-20T07:10:37.756Z,5.62
2019-01-20T07:11:37.744Z,5.62
2019-01-20T07:12:37.738Z,5.62
2019-01-20T07:13:37.738Z,11.25
2019-01-20T07:14:37.733Z,11.25
2019-01-20T07:15:37.704Z,11.25
2019-01-20T07:16:37.695Z,11.25
2019-01-20T07:17:37.685Z,11.25
2019-01-20T07:18:37.685Z,11.25
2019-01-20T07:19:37.663Z,11.25
2019-01-20T07:20:37.651Z,16.88
2019-01-20T07:21:37.640Z,16.88
2019-01-20T07:22:37.630Z,16.88
2019-01-20T07:23:37.632Z,16.88
2019-01-20T07:24:37.609Z,16.88
2019-01-20T07:25:37.601Z,16.88
2019-01-20T07:26:37.592Z,22.50
2019-01-20T07:27:37.579Z,22.50
2019-01-20T07:28:37.579Z,22.50
2019-01-20T07:29:37.556Z,22.50
2019-01-20T07:30:37.561Z,28.12
2019-01-20T07:31:37.538Z,28.12
2019-01-20T07:32:37.525Z,33.75
2019-01-20T07:33:37.526Z,39.38
2019-01-20T07:34:37.506Z,39.38
2019-01-20T07:35:37.554Z,45.00
2019-01-20T07:36:37.482Z,50.62
2019-01-20T07:37:37.472Z,50.62
2019-01-20T07:38:37.471Z,61.88
2019-01-20T07:39:37.452Z,67.50
2019-01-20T07:40:37.446Z,61.88
2019-01-20T07:41:37.432Z,56.25
2019-01-20T07:42:37.421Z,56.25
2019-01-20T07:43:37.422Z,61.88
2019-01-20T07:44:37.402Z,61.88
2019-01-20T07:45:37.391Z,67.50
2019-01-20T07:46:37.380Z,84.38
2019-01-20T07:47:37.371Z,84.38
2019-01-20T07:48:37.371Z,78.75
2019-01-20T07:49:37.349Z,78.75
2019-01-20T07:50:37.337Z,90.00
2019-01-20T07:51:37.326Z,101.25
2019-01-20T07:52:37.317Z,101.25
2019-01-20T07:53:37.317Z,112.50
2019-01-20T07:54:37.295Z,112.50
2019-01-20T07:55:37.284Z,106.88
2019-01-20T07:56:37.278Z,95.62
2019-01-20T07:57:37.263Z,84.38
2019-01-20T07:58:37.265Z,78.75
2019-01-20T07:59:37.242Z,84.38
2019-01-20T08:00:37.232Z,90.00
2019-01-20T08:01:37.222Z,101.25
2019-01-20T08:02:37.211Z,112.50
2019-01-20T08:03:37.211Z,123.75
2019-01-20T08:04:37.197Z,140.62
2019-01-20T08:05:37.180Z,157.50
2019-01-20T08:06:37.490Z,168.75
2019-01-20T08:07:37.159Z,180.00
2019-01-20T08:08:37.157Z,185.62
2019-01-20T08:09:37.137Z,185.62
2019-01-20T08:10:37.125Z,191.25
2019-01-20T08:11:37.116Z,191.25
2019-01-20T08:12:37.106Z,196.88
2019-01-20T08:13:37.107Z,196.88
2019-01-20T08:14:37.085Z,202.50
2019-01-20T08:15:37.074Z,208.12
2019-01-20T08:16:37.062Z,213.75
2019-01-20T08:17:37.055Z,213.75
2019-01-20T08:18:37.052Z,219.38
2019-01-20T08:19:37.031Z,219.38
2019-01-20T08:20:37.022Z,225.00
2019-01-20T08:21:37.009Z,225.00
2019-01-20T08:22:36.997Z,230.62
2019-01-20T08:23:36.998Z,230.62
2019-01-20T08:24:36.981Z,236.25
2019-01-20T08:25:36.966Z,236.25
2019-01-20T08:26:36.956Z,241.88
2019-01-20T08:27:36.948Z,241.88
2019-01-20T08:28:36.936Z,241.88
2019-01-20T08:29:36.933Z,241.88
2019-01-20T08:30:36.912Z,247.50
2019-01-20T08:31:36.906Z,241.88
2019-01-20T08:32:36.892Z,247.50
2019-01-20T08:33:36.884Z,253.12
2019-01-20T08:34:36.881Z,253.12
2019-01-20T08:35:36.864Z,253.12
2019-01-20T08:36:36.851Z,258.75
2019-01-20T08:37:37.811Z,264.38
2019-01-20T08:38:36.831Z,264.38
2019-01-20T08:39:36.830Z,270.00
2019-01-20T08:40:36.806Z,270.00
2019-01-20T08:41:36.797Z,275.62
2019-01-20T08:42:36.784Z,275.62
2019-01-20T08:43:36.776Z,281.25
2019-01-20T08:44:36.775Z,281.25
2019-01-20T08:45:36.755Z,286.88
2019-01-20T08:46:36.745Z,286.88
2019-01-20T08:47:37.960Z,292.50
2019-01-20T08:48:36.722Z,292.50
2019-01-20T08:49:36.722Z,298.12
2019-01-20T08:50:36.701Z,298.12
2019-01-20T08:51:36.689Z,298.12
2019-01-20T08:52:36.679Z,303.75
2019-01-20T08:53:36.669Z,303.75
2019-01-20T08:54:36.667Z,309.38
2019-01-20T08:55:36.675Z,309.38
2019-01-20T08:56:36.636Z,309.38
2019-01-20T08:57:36.629Z,309.38
2019-01-20T08:58:36.615Z,309.38
2019-01-20T08:59:36.614Z,315.00
2019-01-20T09:00:36.592Z,320.62
2019-01-20T09:01:36.583Z,326.25
2019-01-20T09:02:36.572Z,337.50
2019-01-20T09:03:36.560Z,517.50
2019-01-20T09:04:36.561Z,697.50
2019-01-20T09:05:36.538Z,495.00
2019-01-20T09:06:36.555Z,365.62
2019-01-20T09:07:36.524Z,360.00
2019-01-20T09:08:36.511Z,393.75
2019-01-20T09:09:36.513Z,393.75
2019-01-20T09:10:36.483Z,343.12
2019-01-20T09:11:36.475Z,343.12
2019-01-20T09:12:36.462Z,343.12
2019-01-20T09:13:39.905Z,343.12
2019-01-20T09:14:36.455Z,348.75
2019-01-20T09:15:36.434Z,360.00
2019-01-20T09:16:46.877Z,360.00
2019-01-20T09:17:36.410Z,360.00
2019-01-20T09:18:36.408Z,393.75
2019-01-20T09:19:36.419Z,354.38
2019-01-20T09:20:36.390Z,354.38
2019-01-20T09:21:36.368Z,360.00
2019-01-20T09:22:36.358Z,360.00
2019-01-20T09:23:36.430Z,365.62
2019-01-20T09:24:36.463Z,365.62
2019-01-20T09:25:36.366Z,371.25
2019-01-20T09:26:36.500Z,376.88
2019-01-20T09:27:36.416Z,455.62
2019-01-20T09:28:36.300Z,461.25
2019-01-20T09:29:36.378Z,376.88
2019-01-20T09:30:36.300Z,376.88
2019-01-20T09:31:36.363Z,376.88
2019-01-20T09:32:36.261Z,376.88
2019-01-20T09:33:36.244Z,376.88
2019-01-20T09:34:36.246Z,376.88
2019-01-20T09:35:36.223Z,371.25
2019-01-20T09:36:36.211Z,371.25
2019-01-20T09:37:36.197Z,382.50
2019-01-20T09:38:36.195Z,371.25
2019-01-20T09:39:36.209Z,371.25
2019-01-20T09:40:36.170Z,371.25
2019-01-20T09:41:36.165Z,365.62
2019-01-20T09:42:37.500Z,365.62
2019-01-20T09:43:36.139Z,365.62
2019-01-20T09:44:36.127Z,371.25
2019-01-20T09:45:36.145Z,371.25
2019-01-20T09:46:36.100Z,371.25
2019-01-20T09:47:36.094Z,365.62
2019-01-20T09:48:36.330Z,365.62
2019-01-20T09:49:36.072Z,365.62
2019-01-20T09:50:36.080Z,354.38
2019-01-20T09:51:36.048Z,360.00
2019-01-20T09:52:36.039Z,360.00
2019-01-20T09:53:36.034Z,360.00
2019-01-20T09:54:36.017Z,354.38
2019-01-20T09:55:36.026Z,354.38
2019-01-20T09:56:36.003Z,354.38
2019-01-20T09:57:35.982Z,343.12
2019-01-20T09:58:35.977Z,343.12
2019-01-20T09:59:35.965Z,343.12
2019-01-20T10:00:35.973Z,343.12
2019-01-20T10:01:35.944Z,354.38
2019-01-20T10:02:35.937Z,365.62
2019-01-20T10:03:35.922Z,371.25
2019-01-20T10:04:35.911Z,360.00
2019-01-20T10:05:35.909Z,365.62
2019-01-20T10:06:35.882Z,354.38
2019-01-20T10:07:35.887Z,348.75
2019-01-20T10:08:35.869Z,348.75
2019-01-20T10:09:35.856Z,348.75
2019-01-20T10:10:35.860Z,348.75
2019-01-20T10:11:35.840Z,354.38
2019-01-20T10:12:35.825Z,354.38
2019-01-20T10:13:35.818Z,354.38
2019-01-20T10:14:35.802Z,365.62
2019-01-20T10:15:35.801Z,360.00
2019-01-20T10:16:35.780Z,360.00
2019-01-20T10:17:35.770Z,354.38
2019-01-20T10:18:35.760Z,348.75
2019-01-20T10:19:35.760Z,354.38
2019-01-20T10:20:35.764Z,348.75
2019-01-20T10:21:35.727Z,354.38
2019-01-20T10:22:35.719Z,354.38
2019-01-20T10:23:35.702Z,348.75
2019-01-20T10:24:35.696Z,376.88
2019-01-20T10:25:35.709Z,438.75
2019-01-20T10:26:37.912Z,528.75
2019-01-20T10:27:35.702Z,607.50
2019-01-20T10:28:35.651Z,720.00
2019-01-20T10:29:35.639Z,849.38
2019-01-20T10:30:35.650Z,658.12
2019-01-20T10:31:35.620Z,511.88
2019-01-20T10:32:35.615Z,427.50
2019-01-20T10:33:35.619Z,540.00
2019-01-20T10:34:35.584Z,978.75
2019-01-20T10:35:35.585Z,1023.75
2019-01-20T10:36:35.595Z,1468.12
2019-01-20T10:37:35.554Z,1451.25
2019-01-20T10:38:37.167Z,1035.00
2019-01-20T10:39:35.538Z,680.62
2019-01-20T10:40:35.568Z,635.62
2019-01-20T10:41:35.522Z,585.00
2019-01-20T10:42:35.531Z,579.38
2019-01-20T10:43:35.508Z,495.00
2019-01-20T10:44:35.479Z,720.00
2019-01-20T10:45:35.465Z,1001.25
2019-01-20T10:46:35.470Z,798.75
2019-01-20T10:47:35.447Z,860.62
2019-01-20T10:48:35.437Z,714.38
2019-01-20T10:49:35.427Z,410.62
2019-01-20T10:50:35.420Z,393.75
2019-01-20T10:51:35.413Z,393.75
2019-01-20T10:52:35.427Z,399.38
2019-01-20T10:53:35.381Z,399.38
2019-01-20T10:54:35.439Z,393.75
2019-01-20T10:55:35.366Z,534.38
2019-01-20T10:56:35.367Z,838.12
2019-01-20T10:57:35.335Z,798.75
2019-01-20T10:58:35.327Z,922.50
2019-01-20T10:59:35.315Z,1299.38
2019-01-20T11:00:36.421Z,1428.75
2019-01-20T11:01:35.325Z,1299.38
2019-01-20T11:02:35.293Z,703.12
2019-01-20T11:03:35.396Z,641.25
2019-01-20T11:04:35.271Z,371.25
2019-01-20T11:05:35.249Z,393.75
2019-01-20T11:06:35.263Z,759.38
2019-01-20T11:07:35.260Z,691.88
2019-01-20T11:08:35.241Z,326.25
2019-01-20T11:09:35.320Z,326.25
2019-01-20T11:10:35.201Z,1653.75
2019-01-20T11:11:35.196Z,3189.38
2019-01-20T11:12:35.183Z,2677.50
2019-01-20T11:13:35.182Z,1951.88
2019-01-20T11:14:35.158Z,2469.38
2019-01-20T11:15:35.142Z,2463.75
2019-01-20T11:16:35.146Z,1845.00
2019-01-20T11:17:35.123Z,1220.62
2019-01-20T11:18:35.114Z,489.38
2019-01-20T11:19:35.101Z,337.50
2019-01-20T11:20:35.087Z,810.00
2019-01-20T11:21:35.088Z,1833.75
2019-01-20T11:22:35.063Z,1665.00
2019-01-20T11:23:35.058Z,1068.75
2019-01-20T11:24:35.047Z,410.62
2019-01-20T11:25:35.035Z,348.75
2019-01-20T11:26:35.036Z,371.25
2019-01-20T11:27:35.045Z,376.88
2019-01-20T11:28:35.000Z,382.50
2019-01-20T11:29:34.991Z,1186.88
2019-01-20T11:30:34.982Z,2964.38
2019-01-20T11:31:34.984Z,2688.75
2019-01-20T11:32:42.176Z,1996.88
2019-01-20T11:33:35.953Z,2351.25
2019-01-20T11:34:34.962Z,1344.38
2019-01-20T11:35:34.938Z,365.62
2019-01-20T11:36:34.917Z,573.75
2019-01-20T11:37:34.931Z,646.88
2019-01-20T11:38:34.893Z,371.25
2019-01-20T11:39:34.902Z,348.75
2019-01-20T11:40:34.874Z,888.75
2019-01-20T11:41:34.866Z,1884.38
2019-01-20T11:42:34.866Z,2019.38
2019-01-20T11:43:34.837Z,1507.50
2019-01-20T11:44:34.834Z,2041.88
2019-01-20T11:45:34.815Z,2593.12
2019-01-20T11:46:34.816Z,2655.00
2019-01-20T11:47:41.778Z,2919.38
2019-01-20T11:48:35.786Z,2491.88
2019-01-20T11:49:34.782Z,1603.12
2019-01-20T11:50:34.769Z,2446.88
2019-01-20T11:51:34.753Z,3127.50
2019-01-20T11:52:34.753Z,2908.12
2019-01-20T11:53:34.730Z,2615.62
2019-01-20T11:54:34.715Z,2553.75
2019-01-20T11:55:34.704Z,2306.25
2019-01-20T11:56:34.693Z,1659.38
2019-01-20T11:57:34.703Z,2019.38
2019-01-20T11:58:34.679Z,2283.75
2019-01-20T11:59:34.661Z,1648.12
2019-01-20T12:00:34.649Z,1040.62
2019-01-20T12:01:34.640Z,472.50
2019-01-20T12:02:34.645Z,461.25
2019-01-20T12:03:34.619Z,1029.38
2019-01-20T12:04:34.620Z,1383.75
2019-01-20T12:05:34.601Z,1771.88
2019-01-20T12:06:34.587Z,2165.62
2019-01-20T12:07:34.603Z,2418.75
2019-01-20T12:08:34.570Z,2340.00
2019-01-20T12:09:34.560Z,2216.25
2019-01-20T12:10:34.616Z,1665.00
2019-01-20T12:11:34.533Z,579.38
2019-01-20T12:12:34.536Z,427.50
2019-01-20T12:13:34.517Z,427.50
2019-01-20T12:14:34.501Z,438.75
2019-01-20T12:15:34.494Z,455.62
2019-01-20T12:16:34.478Z,680.62
2019-01-20T12:17:34.481Z,2143.12
2019-01-20T12:18:34.457Z,3476.25
2019-01-20T12:19:34.454Z,3099.38
2019-01-20T12:20:34.461Z,3397.50
2019-01-20T12:21:34.442Z,3622.50
2019-01-20T12:22:34.428Z,3127.50
2019-01-20T12:23:34.404Z,2953.12
2019-01-20T12:24:34.397Z,2953.12
2019-01-20T12:25:34.392Z,2688.75
2019-01-20T12:26:34.373Z,2210.62
2019-01-20T12:27:34.375Z,2188.12
2019-01-20T12:28:34.354Z,2171.25
2019-01-20T12:29:34.344Z,2160.00
2019-01-20T12:30:34.331Z,1726.88
2019-01-20T12:31:34.320Z,1755.00
2019-01-20T12:32:34.326Z,2160.00
2019-01-20T12:33:34.301Z,1620.00
2019-01-20T12:34:34.288Z,1518.75
2019-01-20T12:35:34.278Z,1501.88
2019-01-20T12:36:34.272Z,2683.12
2019-01-20T12:37:34.273Z,3009.38
2019-01-20T12:38:34.252Z,3346.88
2019-01-20T12:39:34.238Z,3206.25
2019-01-20T12:40:34.229Z,2835.00
2019-01-20T12:41:34.219Z,2767.50
2019-01-20T12:42:34.238Z,2261.25
2019-01-20T12:43:34.196Z,2385.00
2019-01-20T12:44:34.192Z,2115.00
2019-01-20T12:45:34.178Z,2520.00
2019-01-20T12:46:34.162Z,2373.75
2019-01-20T12:47:34.155Z,2553.75
2019-01-20T12:48:34.159Z,2086.88
2019-01-20T12:49:34.181Z,1845.00
2019-01-20T12:50:34.126Z,2092.50
2019-01-20T12:51:34.116Z,2385.00
2019-01-20T12:52:34.102Z,2896.88
2019-01-20T12:53:34.135Z,2340.00
2019-01-20T12:54:34.084Z,2598.75